sensor_id;sensor_type;location;lat;lon;timestamp;P1;durP1;ratioP1;P2;durP2;ratioP2
24961;SDS011;12992;50.884;13.668;2023-04-24T00:02:20;5.15;;;3.85;;
24961;SDS011;12992;50.884;13.668;2023-04-24T00:04:45;8.23;;;3.95;;
24961;SDS011;12992;50.884;13.668;2023-04-24T00:07:11;6.55;;;3.88;;
24961;SDS011;12992;50.884;13.668;2023-04-24T00:09:38;5.75;;;4.40;;
24961;SDS011;12992;50.884;13.668;2023-04-24T00:12:03;4.95;;;3.78;;
24961;SDS011;12992;50.884;13.668;2023-04-24T00:14:30;4.75;;;4.03;;
24961;SDS011;12992;50.884;13.668;2023-04-24T00:16:55;5.88;;;4.18;;
24961;SDS011;12992;50.884;13.668;2023-04-24T00:19:21;5.32;;;4.03;;
24961;SDS011;12992;50.884;13.668;2023-04-24T00:21:46;6.60;;;4.28;;
24961;SDS011;12992;50.884;13.668;2023-04-24T00:24:14;9.00;;;4.40;;
24961;SDS011;12992;50.884;13.668;2023-04-24T00:26:40;6.00;;;4.72;;
24961;SDS011;12992;50.884;13.668;2023-04-24T00:29:05;6.30;;;4.40;;
24961;SDS011;12992;50.884;13.668;2023-04-24T00:31:31;5.63;;;4.78;;
24961;SDS011;12992;50.884;13.668;2023-04-24T00:33:59;5.90;;;4.75;;
24961;SDS011;12992;50.884;13.668;2023-04-24T00:36:25;5.55;;;4.15;;
24961;SDS011;12992;50.884;13.668;2023-04-24T00:38:51;7.93;;;4.40;;
24961;SDS011;12992;50.884;13.668;2023-04-24T00:41:17;9.02;;;4.20;;
24961;SDS011;12992;50.884;13.668;2023-04-24T00:43:42;4.95;;;4.10;;
24961;SDS011;12992;50.884;13.668;2023-04-24T00:46:08;4.88;;;4.18;;
24961;SDS011;12992;50.884;13.668;2023-04-24T00:48:33;4.88;;;3.85;;
24961;SDS011;12992;50.884;13.668;2023-04-24T00:50:59;4.75;;;3.75;;
24961;SDS011;12992;50.884;13.668;2023-04-24T00:53:24;5.22;;;4.43;;
24961;SDS011;12992;50.884;13.668;2023-04-24T00:55:49;6.15;;;3.88;;
24961;SDS011;12992;50.884;13.668;2023-04-24T00:58:15;5.97;;;3.90;;
24961;SDS011;12992;50.884;13.668;2023-04-24T01:00:41;5.03;;;3.70;;
24961;SDS011;12992;50.884;13.668;2023-04-24T01:03:06;4.38;;;3.38;;
24961;SDS011;12992;50.884;13.668;2023-04-24T01:05:32;3.83;;;3.08;;
24961;SDS011;12992;50.884;13.668;2023-04-24T01:07:58;3.58;;;3.25;;
24961;SDS011;12992;50.884;13.668;2023-04-24T01:10:24;3.10;;;2.72;;
24961;SDS011;12992;50.884;13.668;2023-04-24T01:12:51;4.78;;;2.80;;
24961;SDS011;12992;50.884;13.668;2023-04-24T01:15:16;4.40;;;2.80;;
24961;SDS011;12992;50.884;13.668;2023-04-24T01:17:42;3.08;;;2.65;;
24961;SDS011;12992;50.884;13.668;2023-04-24T01:20:07;3.40;;;2.50;;
24961;SDS011;12992;50.884;13.668;2023-04-24T01:22:34;2.75;;;2.30;;
24961;SDS011;12992;50.884;13.668;2023-04-24T01:24:59;3.40;;;2.50;;
24961;SDS011;12992;50.884;13.668;2023-04-24T01:27:25;3.72;;;2.50;;
24961;SDS011;12992;50.884;13.668;2023-04-24T01:29:50;3.90;;;2.40;;
24961;SDS011;12992;50.884;13.668;2023-04-24T01:32:17;3.50;;;2.22;;
24961;SDS011;12992;50.884;13.668;2023-04-24T01:34:43;2.88;;;2.10;;
24961;SDS011;12992;50.884;13.668;2023-04-24T01:37:10;2.08;;;1.90;;
24961;SDS011;12992;50.884;13.668;2023-04-24T01:39:35;2.88;;;1.90;;
24961;SDS011;12992;50.884;13.668;2023-04-24T01:42:01;3.58;;;1.98;;
24961;SDS011;12992;50.884;13.668;2023-04-24T01:44:27;2.17;;;1.90;;
24961;SDS011;12992;50.884;13.668;2023-04-24T01:46:52;2.55;;;1.90;;
24961;SDS011;12992;50.884;13.668;2023-04-24T01:49:20;2.35;;;1.88;;
24961;SDS011;12992;50.884;13.668;2023-04-24T01:51:45;2.58;;;2.00;;
24961;SDS011;12992;50.884;13.668;2023-04-24T01:54:11;4.60;;;2.00;;
24961;SDS011;12992;50.884;13.668;2023-04-24T01:56:37;2.15;;;1.95;;
24961;SDS011;12992;50.884;13.668;2023-04-24T01:59:07;3.42;;;2.00;;
24961;SDS011;12992;50.884;13.668;2023-04-24T02:01:35;3.00;;;1.90;;
24961;SDS011;12992;50.884;13.668;2023-04-24T02:04:01;2.50;;;2.25;;
24961;SDS011;12992;50.884;13.668;2023-04-24T02:06:27;2.22;;;2.03;;
24961;SDS011;12992;50.884;13.668;2023-04-24T02:08:52;3.03;;;2.00;;
24961;SDS011;12992;50.884;13.668;2023-04-24T02:11:18;4.35;;;2.17;;
24961;SDS011;12992;50.884;13.668;2023-04-24T02:13:43;2.60;;;1.95;;
24961;SDS011;12992;50.884;13.668;2023-04-24T02:16:09;2.90;;;2.10;;
24961;SDS011;12992;50.884;13.668;2023-04-24T02:18:34;2.20;;;1.85;;
24961;SDS011;12992;50.884;13.668;2023-04-24T02:21:00;2.30;;;1.90;;
24961;SDS011;12992;50.884;13.668;2023-04-24T02:23:25;1.65;;;1.55;;
24961;SDS011;12992;50.884;13.668;2023-04-24T02:25:52;2.38;;;1.92;;
24961;SDS011;12992;50.884;13.668;2023-04-24T02:28:18;3.00;;;1.60;;
24961;SDS011;12992;50.884;13.668;2023-04-24T02:30:43;1.60;;;1.40;;
24961;SDS011;12992;50.884;13.668;2023-04-24T02:33:09;2.85;;;1.70;;
24961;SDS011;12992;50.884;13.668;2023-04-24T02:35:34;1.67;;;1.45;;
24961;SDS011;12992;50.884;13.668;2023-04-24T02:38:00;1.70;;;1.60;;
24961;SDS011;12992;50.884;13.668;2023-04-24T02:40:25;1.65;;;1.30;;
24961;SDS011;12992;50.884;13.668;2023-04-24T02:42:50;2.42;;;1.30;;
24961;SDS011;12992;50.884;13.668;2023-04-24T02:45:16;2.65;;;1.30;;
24961;SDS011;12992;50.884;13.668;2023-04-24T02:47:41;1.30;;;1.20;;
24961;SDS011;12992;50.884;13.668;2023-04-24T02:50:07;2.17;;;1.30;;
24961;SDS011;12992;50.884;13.668;2023-04-24T02:52:32;1.95;;;1.17;;
24961;SDS011;12992;50.884;13.668;2023-04-24T02:54:58;1.27;;;1.17;;
24961;SDS011;12992;50.884;13.668;2023-04-24T02:57:23;1.73;;;1.20;;
24961;SDS011;12992;50.884;13.668;2023-04-24T02:59:49;2.63;;;1.20;;
24961;SDS011;12992;50.884;13.668;2023-04-24T03:02:14;1.60;;;1.17;;
24961;SDS011;12992;50.884;13.668;2023-04-24T03:04:40;1.85;;;1.10;;
24961;SDS011;12992;50.884;13.668;2023-04-24T03:07:05;1.13;;;0.90;;
24961;SDS011;12992;50.884;13.668;2023-04-24T03:09:30;1.33;;;1.10;;
24961;SDS011;12992;50.884;13.668;2023-04-24T03:11:56;1.08;;;0.98;;
24961;SDS011;12992;50.884;13.668;2023-04-24T03:14:23;1.17;;;1.00;;
24961;SDS011;12992;50.884;13.668;2023-04-24T03:16:49;0.93;;;0.70;;
24961;SDS011;12992;50.884;13.668;2023-04-24T03:19:15;1.48;;;1.10;;
24961;SDS011;12992;50.884;13.668;2023-04-24T03:21:51;2.85;;;1.08;;
24961;SDS011;12992;50.884;13.668;2023-04-24T03:24:17;2.75;;;1.00;;
24961;SDS011;12992;50.884;13.668;2023-04-24T03:26:42;0.80;;;0.80;;
24961;SDS011;12992;50.884;13.668;2023-04-24T03:29:26;0.80;;;0.80;;
24961;SDS011;12992;50.884;13.668;2023-04-24T03:31:52;0.68;;;0.68;;
24961;SDS011;12992;50.884;13.668;2023-04-24T03:34:17;1.42;;;0.80;;
24961;SDS011;12992;50.884;13.668;2023-04-24T03:36:43;1.02;;;0.90;;
24961;SDS011;12992;50.884;13.668;2023-04-24T03:39:08;1.02;;;0.80;;
24961;SDS011;12992;50.884;13.668;2023-04-24T03:41:36;2.55;;;0.90;;
24961;SDS011;12992;50.884;13.668;2023-04-24T03:44:08;1.40;;;0.90;;
24961;SDS011;12992;50.884;13.668;2023-04-24T03:46:34;3.33;;;0.90;;
24961;SDS011;12992;50.884;13.668;2023-04-24T03:49:00;1.17;;;0.90;;
24961;SDS011;12992;50.884;13.668;2023-04-24T03:51:30;1.17;;;1.08;;
24961;SDS011;12992;50.884;13.668;2023-04-24T03:56:30;1.80;;;0.90;;
24961;SDS011;12992;50.884;13.668;2023-04-24T03:58:55;1.10;;;1.00;;
24961;SDS011;12992;50.884;13.668;2023-04-24T04:01:21;1.23;;;0.80;;
24961;SDS011;12992;50.884;13.668;2023-04-24T04:03:53;2.33;;;1.02;;
24961;SDS011;12992;50.884;13.668;2023-04-24T04:06:22;0.70;;;0.70;;
24961;SDS011;12992;50.884;13.668;2023-04-24T04:08:48;1.17;;;0.90;;
24961;SDS011;12992;50.884;13.668;2023-04-24T04:11:14;0.77;;;0.77;;
24961;SDS011;12992;50.884;13.668;2023-04-24T04:13:39;1.08;;;0.90;;
24961;SDS011;12992;50.884;13.668;2023-04-24T04:16:05;0.73;;;0.70;;
24961;SDS011;12992;50.884;13.668;2023-04-24T04:18:30;1.38;;;0.95;;
24961;SDS011;12992;50.884;13.668;2023-04-24T04:20:56;1.90;;;1.08;;
24961;SDS011;12992;50.884;13.668;2023-04-24T04:23:22;2.40;;;0.80;;
24961;SDS011;12992;50.884;13.668;2023-04-24T04:25:59;3.42;;;0.80;;
24961;SDS011;12992;50.884;13.668;2023-04-24T04:28:35;0.70;;;0.68;;
24961;SDS011;12992;50.884;13.668;2023-04-24T04:31:02;5.47;;;0.80;;
24961;SDS011;12992;50.884;13.668;2023-04-24T04:33:28;0.75;;;0.60;;
24961;SDS011;12992;50.884;13.668;2023-04-24T04:35:54;1.33;;;0.80;;
24961;SDS011;12992;50.884;13.668;2023-04-24T04:38:22;1.58;;;0.80;;
24961;SDS011;12992;50.884;13.668;2023-04-24T04:40:58;1.13;;;0.90;;
24961;SDS011;12992;50.884;13.668;2023-04-24T04:43:27;1.67;;;0.60;;
24961;SDS011;12992;50.884;13.668;2023-04-24T04:45:53;2.63;;;0.80;;
24961;SDS011;12992;50.884;13.668;2023-04-24T04:48:47;1.70;;;0.90;;
24961;SDS011;12992;50.884;13.668;2023-04-24T04:51:13;0.93;;;0.65;;
24961;SDS011;12992;50.884;13.668;2023-04-24T04:53:38;0.98;;;0.85;;
24961;SDS011;12992;50.884;13.668;2023-04-24T04:56:03;1.92;;;0.75;;
24961;SDS011;12992;50.884;13.668;2023-04-24T04:58:39;2.60;;;0.80;;
24961;SDS011;12992;50.884;13.668;2023-04-24T05:01:08;2.05;;;0.90;;
24961;SDS011;12992;50.884;13.668;2023-04-24T05:03:39;1.33;;;0.88;;
24961;SDS011;12992;50.884;13.668;2023-04-24T05:06:08;2.17;;;0.77;;
24961;SDS011;12992;50.884;13.668;2023-04-24T05:08:36;2.97;;;1.10;;
24961;SDS011;12992;50.884;13.668;2023-04-24T05:11:03;0.98;;;0.70;;
24961;SDS011;12992;50.884;13.668;2023-04-24T05:13:30;1.83;;;0.80;;
24961;SDS011;12992;50.884;13.668;2023-04-24T05:15:56;1.30;;;0.82;;
24961;SDS011;12992;50.884;13.668;2023-04-24T05:18:22;0.98;;;0.85;;
24961;SDS011;12992;50.884;13.668;2023-04-24T05:20:48;1.05;;;0.65;;
24961;SDS011;12992;50.884;13.668;2023-04-24T05:23:14;0.68;;;0.65;;
24961;SDS011;12992;50.884;13.668;2023-04-24T05:25:41;0.70;;;0.70;;
24961;SDS011;12992;50.884;13.668;2023-04-24T05:28:10;1.40;;;0.60;;
24961;SDS011;12992;50.884;13.668;2023-04-24T05:30:36;1.70;;;0.50;;
24961;SDS011;12992;50.884;13.668;2023-04-24T05:33:02;2.67;;;0.70;;
24961;SDS011;12992;50.884;13.668;2023-04-24T05:35:29;0.73;;;0.70;;
24961;SDS011;12992;50.884;13.668;2023-04-24T05:37:54;0.65;;;0.65;;
24961;SDS011;12992;50.884;13.668;2023-04-24T05:40:20;1.00;;;0.60;;
24961;SDS011;12992;50.884;13.668;2023-04-24T05:42:46;1.05;;;0.70;;
24961;SDS011;12992;50.884;13.668;2023-04-24T05:45:11;0.73;;;0.68;;
24961;SDS011;12992;50.884;13.668;2023-04-24T05:47:41;2.03;;;0.70;;
24961;SDS011;12992;50.884;13.668;2023-04-24T05:50:07;1.83;;;0.63;;
24961;SDS011;12992;50.884;13.668;2023-04-24T05:52:32;1.35;;;0.70;;
24961;SDS011;12992;50.884;13.668;2023-04-24T05:55:00;5.60;;;1.48;;
24961;SDS011;12992;50.884;13.668;2023-04-24T05:57:31;1.63;;;0.70;;
24961;SDS011;12992;50.884;13.668;2023-04-24T06:00:00;1.98;;;0.60;;
24961;SDS011;12992;50.884;13.668;2023-04-24T06:02:26;2.97;;;0.75;;
24961;SDS011;12992;50.884;13.668;2023-04-24T06:04:52;0.45;;;0.45;;
24961;SDS011;12992;50.884;13.668;2023-04-24T06:07:18;1.50;;;0.60;;
24961;SDS011;12992;50.884;13.668;2023-04-24T06:09:43;1.95;;;0.70;;
24961;SDS011;12992;50.884;13.668;2023-04-24T06:12:09;2.63;;;0.90;;
24961;SDS011;12992;50.884;13.668;2023-04-24T06:14:52;2.42;;;0.70;;
24961;SDS011;12992;50.884;13.668;2023-04-24T06:17:42;2.45;;;1.00;;
24961;SDS011;12992;50.884;13.668;2023-04-24T06:20:08;1.55;;;0.60;;
24961;SDS011;12992;50.884;13.668;2023-04-24T06:22:35;0.75;;;0.60;;
24961;SDS011;12992;50.884;13.668;2023-04-24T06:25:02;0.52;;;0.50;;
24961;SDS011;12992;50.884;13.668;2023-04-24T06:27:27;0.88;;;0.55;;
24961;SDS011;12992;50.884;13.668;2023-04-24T06:29:52;0.63;;;0.50;;
24961;SDS011;12992;50.884;13.668;2023-04-24T06:32:23;0.80;;;0.70;;
24961;SDS011;12992;50.884;13.668;2023-04-24T06:34:49;0.55;;;0.55;;
24961;SDS011;12992;50.884;13.668;2023-04-24T06:37:14;0.80;;;0.70;;
24961;SDS011;12992;50.884;13.668;2023-04-24T06:39:41;1.48;;;0.70;;
24961;SDS011;12992;50.884;13.668;2023-04-24T06:42:06;0.60;;;0.60;;
24961;SDS011;12992;50.884;13.668;2023-04-24T06:44:33;1.42;;;0.70;;
24961;SDS011;12992;50.884;13.668;2023-04-24T06:47:02;0.60;;;0.60;;
24961;SDS011;12992;50.884;13.668;2023-04-24T06:49:28;1.10;;;0.68;;
24961;SDS011;12992;50.884;13.668;2023-04-24T06:51:53;0.82;;;0.82;;
24961;SDS011;12992;50.884;13.668;2023-04-24T06:54:18;1.48;;;0.77;;
24961;SDS011;12992;50.884;13.668;2023-04-24T06:56:44;1.65;;;0.70;;
24961;SDS011;12992;50.884;13.668;2023-04-24T06:59:11;1.10;;;0.73;;
24961;SDS011;12992;50.884;13.668;2023-04-24T07:01:36;0.60;;;0.60;;
24961;SDS011;12992;50.884;13.668;2023-04-24T07:04:02;0.45;;;0.40;;
24961;SDS011;12992;50.884;13.668;2023-04-24T07:06:27;0.75;;;0.50;;
24961;SDS011;12992;50.884;13.668;2023-04-24T07:08:52;0.65;;;0.65;;
24961;SDS011;12992;50.884;13.668;2023-04-24T07:11:18;1.05;;;0.65;;
24961;SDS011;12992;50.884;13.668;2023-04-24T07:13:44;2.85;;;0.60;;
24961;SDS011;12992;50.884;13.668;2023-04-24T07:16:09;0.73;;;0.68;;
24961;SDS011;12992;50.884;13.668;2023-04-24T07:18:35;1.48;;;0.85;;
24961;SDS011;12992;50.884;13.668;2023-04-24T07:21:01;0.95;;;0.70;;
24961;SDS011;12992;50.884;13.668;2023-04-24T07:23:26;2.55;;;0.70;;
24961;SDS011;12992;50.884;13.668;2023-04-24T07:25:52;1.73;;;0.63;;
24961;SDS011;12992;50.884;13.668;2023-04-24T07:28:17;0.73;;;0.55;;
24961;SDS011;12992;50.884;13.668;2023-04-24T07:30:43;0.50;;;0.50;;
24961;SDS011;12992;50.884;13.668;2023-04-24T07:33:08;0.55;;;0.52;;
24961;SDS011;12992;50.884;13.668;2023-04-24T07:35:36;1.60;;;0.57;;
24961;SDS011;12992;50.884;13.668;2023-04-24T07:38:01;1.20;;;0.60;;
24961;SDS011;12992;50.884;13.668;2023-04-24T07:40:27;1.33;;;0.70;;
24961;SDS011;12992;50.884;13.668;2023-04-24T07:42:52;1.52;;;0.60;;
24961;SDS011;12992;50.884;13.668;2023-04-24T07:45:17;1.13;;;0.50;;
24961;SDS011;12992;50.884;13.668;2023-04-24T07:47:43;1.33;;;0.65;;
24961;SDS011;12992;50.884;13.668;2023-04-24T07:50:10;0.63;;;0.57;;
24961;SDS011;12992;50.884;13.668;2023-04-24T07:52:36;0.88;;;0.60;;
24961;SDS011;12992;50.884;13.668;2023-04-24T07:55:01;1.27;;;0.45;;
24961;SDS011;12992;50.884;13.668;2023-04-24T07:57:27;1.77;;;0.50;;
24961;SDS011;12992;50.884;13.668;2023-04-24T07:59:52;1.05;;;0.65;;
24961;SDS011;12992;50.884;13.668;2023-04-24T08:02:18;1.10;;;0.50;;
24961;SDS011;12992;50.884;13.668;2023-04-24T08:04:43;1.10;;;0.60;;
24961;SDS011;12992;50.884;13.668;2023-04-24T08:07:08;0.47;;;0.40;;
24961;SDS011;12992;50.884;13.668;2023-04-24T08:09:34;0.88;;;0.45;;
24961;SDS011;12992;50.884;13.668;2023-04-24T08:11:59;1.50;;;0.50;;
24961;SDS011;12992;50.884;13.668;2023-04-24T08:14:24;3.08;;;0.57;;
24961;SDS011;12992;50.884;13.668;2023-04-24T08:16:50;2.30;;;0.50;;
24961;SDS011;12992;50.884;13.668;2023-04-24T08:19:15;0.40;;;0.30;;
24961;SDS011;12992;50.884;13.668;2023-04-24T08:21:41;0.63;;;0.63;;
24961;SDS011;12992;50.884;13.668;2023-04-24T08:24:06;0.70;;;0.52;;
24961;SDS011;12992;50.884;13.668;2023-04-24T08:26:33;1.88;;;0.63;;
24961;SDS011;12992;50.884;13.668;2023-04-24T08:28:58;0.55;;;0.40;;
24961;SDS011;12992;50.884;13.668;2023-04-24T08:31:23;0.80;;;0.38;;
24961;SDS011;12992;50.884;13.668;2023-04-24T08:33:50;1.15;;;0.55;;
24961;SDS011;12992;50.884;13.668;2023-04-24T08:36:15;0.38;;;0.35;;
24961;SDS011;12992;50.884;13.668;2023-04-24T08:38:40;1.48;;;0.40;;
24961;SDS011;12992;50.884;13.668;2023-04-24T08:41:07;0.40;;;0.40;;
24961;SDS011;12992;50.884;13.668;2023-04-24T08:43:32;1.20;;;0.40;;
24961;SDS011;12992;50.884;13.668;2023-04-24T08:45:58;1.42;;;0.55;;
24961;SDS011;12992;50.884;13.668;2023-04-24T08:48:24;1.08;;;0.60;;
24961;SDS011;12992;50.884;13.668;2023-04-24T08:50:50;2.45;;;0.82;;
24961;SDS011;12992;50.884;13.668;2023-04-24T08:53:16;1.27;;;0.88;;
24961;SDS011;12992;50.884;13.668;2023-04-24T08:55:41;3.03;;;0.55;;
24961;SDS011;12992;50.884;13.668;2023-04-24T08:58:11;2.40;;;1.00;;
24961;SDS011;12992;50.884;13.668;2023-04-24T09:00:38;1.38;;;0.88;;
24961;SDS011;12992;50.884;13.668;2023-04-24T09:03:04;1.40;;;0.70;;
24961;SDS011;12992;50.884;13.668;2023-04-24T09:05:30;2.17;;;0.60;;
24961;SDS011;12992;50.884;13.668;2023-04-24T09:07:57;2.45;;;0.77;;
24961;SDS011;12992;50.884;13.668;2023-04-24T09:10:25;1.55;;;0.63;;
24961;SDS011;12992;50.884;13.668;2023-04-24T09:12:51;1.15;;;0.50;;
24961;SDS011;12992;50.884;13.668;2023-04-24T09:15:20;2.90;;;0.60;;
24961;SDS011;12992;50.884;13.668;2023-04-24T09:17:46;0.60;;;0.50;;
24961;SDS011;12992;50.884;13.668;2023-04-24T09:20:11;2.63;;;0.60;;
24961;SDS011;12992;50.884;13.668;2023-04-24T09:22:37;0.77;;;0.40;;
24961;SDS011;12992;50.884;13.668;2023-04-24T09:25:04;0.57;;;0.40;;
24961;SDS011;12992;50.884;13.668;2023-04-24T09:27:32;0.52;;;0.43;;
24961;SDS011;12992;50.884;13.668;2023-04-24T09:29:58;1.15;;;0.57;;
24961;SDS011;12992;50.884;13.668;2023-04-24T09:32:24;1.23;;;0.60;;
24961;SDS011;12992;50.884;13.668;2023-04-24T09:40:12;1.48;;;0.50;;
24961;SDS011;12992;50.884;13.668;2023-04-24T09:42:40;1.55;;;0.35;;
24961;SDS011;12992;50.884;13.668;2023-04-24T09:45:09;1.05;;;0.40;;
24961;SDS011;12992;50.884;13.668;2023-04-24T09:47:36;1.65;;;0.50;;
24961;SDS011;12992;50.884;13.668;2023-04-24T09:50:09;1.23;;;0.50;;
24961;SDS011;12992;50.884;13.668;2023-04-24T09:52:45;1.40;;;0.73;;
24961;SDS011;12992;50.884;13.668;2023-04-24T09:55:16;2.45;;;0.50;;
24961;SDS011;12992;50.884;13.668;2023-04-24T09:57:46;2.08;;;0.60;;
24961;SDS011;12992;50.884;13.668;2023-04-24T10:00:13;1.00;;;0.50;;
24961;SDS011;12992;50.884;13.668;2023-04-24T10:02:42;0.30;;;0.30;;
24961;SDS011;12992;50.884;13.668;2023-04-24T10:05:09;2.45;;;0.50;;
24961;SDS011;12992;50.884;13.668;2023-04-24T10:07:37;1.33;;;0.30;;
24961;SDS011;12992;50.884;13.668;2023-04-24T10:10:02;0.63;;;0.57;;
24961;SDS011;12992;50.884;13.668;2023-04-24T10:12:28;3.78;;;1.48;;
24961;SDS011;12992;50.884;13.668;2023-04-24T10:14:54;1.05;;;0.70;;
24961;SDS011;12992;50.884;13.668;2023-04-24T10:17:20;1.80;;;0.60;;
24961;SDS011;12992;50.884;13.668;2023-04-24T10:19:48;0.30;;;0.30;;
24961;SDS011;12992;50.884;13.668;2023-04-24T10:22:14;0.40;;;0.40;;
24961;SDS011;12992;50.884;13.668;2023-04-24T10:24:41;2.53;;;0.50;;
24961;SDS011;12992;50.884;13.668;2023-04-24T10:27:08;0.50;;;0.50;;
24961;SDS011;12992;50.884;13.668;2023-04-24T10:29:34;0.60;;;0.40;;
24961;SDS011;12992;50.884;13.668;2023-04-24T10:32:00;1.00;;;0.30;;
24961;SDS011;12992;50.884;13.668;2023-04-24T10:34:26;0.60;;;0.40;;
24961;SDS011;12992;50.884;13.668;2023-04-24T10:36:52;2.20;;;0.60;;
24961;SDS011;12992;50.884;13.668;2023-04-24T10:39:20;1.92;;;0.85;;
24961;SDS011;12992;50.884;13.668;2023-04-24T10:41:48;2.67;;;1.20;;
24961;SDS011;12992;50.884;13.668;2023-04-24T10:44:14;2.63;;;0.98;;
24961;SDS011;12992;50.884;13.668;2023-04-24T10:46:45;1.50;;;0.95;;
24961;SDS011;12992;50.884;13.668;2023-04-24T10:49:12;0.80;;;0.68;;
24961;SDS011;12992;50.884;13.668;2023-04-24T10:51:51;3.38;;;0.50;;
24961;SDS011;12992;50.884;13.668;2023-04-24T10:54:28;1.05;;;0.35;;
24961;SDS011;12992;50.884;13.668;2023-04-24T10:59:42;1.00;;;0.80;;
24961;SDS011;12992;50.884;13.668;2023-04-24T11:02:08;3.78;;;1.02;;
24961;SDS011;12992;50.884;13.668;2023-04-24T11:04:35;1.13;;;0.80;;
24961;SDS011;12992;50.884;13.668;2023-04-24T11:07:04;2.58;;;1.30;;
24961;SDS011;12992;50.884;13.668;2023-04-24T11:09:30;1.85;;;0.70;;
24961;SDS011;12992;50.884;13.668;2023-04-24T11:12:03;1.38;;;0.73;;
24961;SDS011;12992;50.884;13.668;2023-04-24T11:17:28;2.65;;;0.70;;
24961;SDS011;12992;50.884;13.668;2023-04-24T11:20:06;0.77;;;0.77;;
24961;SDS011;12992;50.884;13.668;2023-04-24T11:22:36;1.55;;;0.70;;
24961;SDS011;12992;50.884;13.668;2023-04-24T11:25:04;2.65;;;0.70;;
24961;SDS011;12992;50.884;13.668;2023-04-24T11:27:31;1.02;;;0.70;;
24961;SDS011;12992;50.884;13.668;2023-04-24T11:30:04;1.35;;;0.80;;
24961;SDS011;12992;50.884;13.668;2023-04-24T11:35:00;2.25;;;0.90;;
24961;SDS011;12992;50.884;13.668;2023-04-24T11:37:29;2.80;;;0.90;;
24961;SDS011;12992;50.884;13.668;2023-04-24T11:39:59;1.42;;;0.70;;
24961;SDS011;12992;50.884;13.668;2023-04-24T11:42:24;5.45;;;0.90;;
24961;SDS011;12992;50.884;13.668;2023-04-24T11:44:53;2.03;;;0.77;;
24961;SDS011;12992;50.884;13.668;2023-04-24T11:47:31;0.75;;;0.68;;
24961;SDS011;12992;50.884;13.668;2023-04-24T11:49:58;0.80;;;0.80;;
24961;SDS011;12992;50.884;13.668;2023-04-24T11:52:25;0.85;;;0.77;;
24961;SDS011;12992;50.884;13.668;2023-04-24T11:54:51;1.40;;;0.70;;
24961;SDS011;12992;50.884;13.668;2023-04-24T11:57:20;1.83;;;0.77;;
24961;SDS011;12992;50.884;13.668;2023-04-24T11:59:46;1.20;;;0.80;;
24961;SDS011;12992;50.884;13.668;2023-04-24T12:02:24;0.70;;;0.57;;
24961;SDS011;12992;50.884;13.668;2023-04-24T12:04:52;0.88;;;0.60;;
24961;SDS011;12992;50.884;13.668;2023-04-24T12:07:18;0.65;;;0.65;;
24961;SDS011;12992;50.884;13.668;2023-04-24T12:09:44;2.05;;;0.60;;
24961;SDS011;12992;50.884;13.668;2023-04-24T12:12:12;1.27;;;0.60;;
24961;SDS011;12992;50.884;13.668;2023-04-24T12:14:48;5.15;;;0.75;;
24961;SDS011;12992;50.884;13.668;2023-04-24T12:19:59;1.73;;;0.70;;
24961;SDS011;12992;50.884;13.668;2023-04-24T12:25:21;3.67;;;1.13;;
24961;SDS011;12992;50.884;13.668;2023-04-24T12:27:52;0.95;;;0.88;;
24961;SDS011;12992;50.884;13.668;2023-04-24T12:30:19;1.65;;;1.30;;
24961;SDS011;12992;50.884;13.668;2023-04-24T12:32:45;1.25;;;0.90;;
24961;SDS011;12992;50.884;13.668;2023-04-24T12:35:13;3.33;;;1.20;;
24961;SDS011;12992;50.884;13.668;2023-04-24T12:37:41;0.80;;;0.80;;
24961;SDS011;12992;50.884;13.668;2023-04-24T12:40:09;0.82;;;0.80;;
24961;SDS011;12992;50.884;13.668;2023-04-24T12:42:41;1.48;;;0.90;;
24961;SDS011;12992;50.884;13.668;2023-04-24T12:47:33;1.77;;;1.08;;
24961;SDS011;12992;50.884;13.668;2023-04-24T12:50:00;2.10;;;0.77;;
24961;SDS011;12992;50.884;13.668;2023-04-24T12:52:26;3.90;;;0.82;;
24961;SDS011;12992;50.884;13.668;2023-04-24T12:54:53;1.00;;;0.90;;
24961;SDS011;12992;50.884;13.668;2023-04-24T12:57:20;2.35;;;1.00;;
24961;SDS011;12992;50.884;13.668;2023-04-24T12:59:46;1.40;;;0.75;;
24961;SDS011;12992;50.884;13.668;2023-04-24T13:02:11;2.05;;;1.30;;
24961;SDS011;12992;50.884;13.668;2023-04-24T13:04:37;1.38;;;1.27;;
24961;SDS011;12992;50.884;13.668;2023-04-24T13:07:03;1.33;;;1.02;;
24961;SDS011;12992;50.884;13.668;2023-04-24T13:09:28;2.58;;;0.90;;
24961;SDS011;12992;50.884;13.668;2023-04-24T13:11:54;2.50;;;1.00;;
24961;SDS011;12992;50.884;13.668;2023-04-24T13:14:21;1.20;;;1.00;;
24961;SDS011;12992;50.884;13.668;2023-04-24T13:16:46;1.70;;;1.25;;
24961;SDS011;12992;50.884;13.668;2023-04-24T13:19:12;2.72;;;0.90;;
24961;SDS011;12992;50.884;13.668;2023-04-24T13:21:37;1.92;;;1.00;;
24961;SDS011;12992;50.884;13.668;2023-04-24T13:24:02;3.42;;;1.00;;
24961;SDS011;12992;50.884;13.668;2023-04-24T13:26:29;1.05;;;0.95;;
24961;SDS011;12992;50.884;13.668;2023-04-24T13:28:55;1.70;;;0.80;;
24961;SDS011;12992;50.884;13.668;2023-04-24T13:31:20;1.38;;;1.00;;
24961;SDS011;12992;50.884;13.668;2023-04-24T13:33:46;2.35;;;0.90;;
24961;SDS011;12992;50.884;13.668;2023-04-24T13:36:11;0.93;;;0.90;;
24961;SDS011;12992;50.884;13.668;2023-04-24T13:38:37;1.92;;;0.90;;
24961;SDS011;12992;50.884;13.668;2023-04-24T13:41:02;2.00;;;1.23;;
24961;SDS011;12992;50.884;13.668;2023-04-24T13:43:27;1.48;;;1.15;;
24961;SDS011;12992;50.884;13.668;2023-04-24T13:45:53;2.72;;;1.15;;
24961;SDS011;12992;50.884;13.668;2023-04-24T13:48:18;2.25;;;1.00;;
24961;SDS011;12992;50.884;13.668;2023-04-24T13:50:43;2.63;;;1.10;;
24961;SDS011;12992;50.884;13.668;2023-04-24T13:53:09;2.05;;;1.00;;
24961;SDS011;12992;50.884;13.668;2023-04-24T13:55:35;1.10;;;1.00;;
24961;SDS011;12992;50.884;13.668;2023-04-24T13:58:01;1.17;;;0.82;;
24961;SDS011;12992;50.884;13.668;2023-04-24T14:00:27;4.28;;;1.17;;
24961;SDS011;12992;50.884;13.668;2023-04-24T14:02:52;1.88;;;1.00;;
24961;SDS011;12992;50.884;13.668;2023-04-24T14:05:18;1.23;;;1.02;;
24961;SDS011;12992;50.884;13.668;2023-04-24T14:07:43;3.35;;;1.10;;
24961;SDS011;12992;50.884;13.668;2023-04-24T14:10:09;1.52;;;1.08;;
24961;SDS011;12992;50.884;13.668;2023-04-24T14:12:34;0.85;;;0.82;;
24961;SDS011;12992;50.884;13.668;2023-04-24T14:15:00;2.40;;;1.05;;
24961;SDS011;12992;50.884;13.668;2023-04-24T14:17:26;1.60;;;1.50;;
24961;SDS011;12992;50.884;13.668;2023-04-24T14:19:51;0.80;;;0.80;;
24961;SDS011;12992;50.884;13.668;2023-04-24T14:22:17;5.28;;;1.20;;
24961;SDS011;12992;50.884;13.668;2023-04-24T14:24:42;1.30;;;1.10;;
24961;SDS011;12992;50.884;13.668;2023-04-24T14:27:08;1.38;;;1.23;;
24961;SDS011;12992;50.884;13.668;2023-04-24T14:29:33;1.73;;;1.10;;
24961;SDS011;12992;50.884;13.668;2023-04-24T14:31:59;2.45;;;1.10;;
24961;SDS011;12992;50.884;13.668;2023-04-24T14:34:24;0.90;;;0.90;;
24961;SDS011;12992;50.884;13.668;2023-04-24T14:36:49;1.75;;;0.98;;
24961;SDS011;12992;50.884;13.668;2023-04-24T14:39:15;1.20;;;1.10;;
24961;SDS011;12992;50.884;13.668;2023-04-24T14:41:40;1.23;;;1.10;;
24961;SDS011;12992;50.884;13.668;2023-04-24T14:44:05;3.13;;;1.13;;
24961;SDS011;12992;50.884;13.668;2023-04-24T14:46:31;1.35;;;1.20;;
24961;SDS011;12992;50.884;13.668;2023-04-24T14:48:56;1.08;;;0.98;;
24961;SDS011;12992;50.884;13.668;2023-04-24T14:51:22;2.47;;;1.40;;
24961;SDS011;12992;50.884;13.668;2023-04-24T14:53:48;2.80;;;1.40;;
24961;SDS011;12992;50.884;13.668;2023-04-24T14:56:13;1.60;;;1.10;;